TimeMST,TemperatureF,Dew PointF,Humidity,Sea Level PressureIn,VisibilityMPH,Wind Direction,Wind SpeedMPH,Gust SpeedMPH,PrecipitationIn,Events,Conditions,WindDirDegrees,DateUTC
12:53 AM,44.1,24.1,45,29.99,10.0,SSW,20.7,29.9,N/A,,Clear,210,2012-12-05 07:53:00
1:53 AM,44.1,21.9,42,29.95,10.0,SW,28.8,38.0,N/A,,Clear,220,2012-12-05 08:53:00
2:53 AM,44.1,23.0,43,29.95,10.0,SW,19.6,-,N/A,,Clear,220,2012-12-05 09:53:00
3:53 AM,45.0,25.0,46,29.94,10.0,SW,20.7,32.2,N/A,,Clear,220,2012-12-05 10:53:00
4:53 AM,45.0,25.0,46,29.92,10.0,SW,28.8,38.0,N/A,,Clear,220,2012-12-05 11:53:00
5:53 AM,46.0,27.0,47,29.92,10.0,SSW,25.3,33.4,N/A,,Clear,210,2012-12-05 12:53:00
7:53 AM,46.0,28.0,50,29.89,10.0,SW,24.2,32.2,N/A,,Clear,220,2012-12-05 14:53:00
8:53 AM,48.0,27.0,44,29.88,10.0,SW,25.3,32.2,N/A,,Clear,220,2012-12-05 15:53:00
9:53 AM,48.9,26.1,41,29.86,10.0,SW,19.6,31.1,N/A,,Clear,230,2012-12-05 16:53:00
10:53 AM,53.1,26.1,35,29.83,10.0,SSW,27.6,38.0,N/A,,Clear,210,2012-12-05 17:53:00
11:53 AM,57.2,26.6,31,29.88,10.0,SW,18.4,28.8,N/A,,Clear,230,2012-12-05 18:53:00
12:53 PM,54.0,27.0,35,29.77,10.0,SW,27.6,36.8,N/A,,Clear,230,2012-12-05 19:53:00
1:53 PM,53.1,28.9,40,29.76,10.0,SW,25.3,36.8,N/A,,Scattered Clouds,220,2012-12-05 20:53:00
2:53 PM,52.0,30.0,43,29.78,10.0,SW,23.0,35.7,N/A,,Mostly Cloudy,220,2012-12-05 21:53:00
3:53 PM,51.1,30.0,44,29.78,10.0,SW,24.2,31.1,N/A,,Partly Cloudy,230,2012-12-05 22:53:00
4:53 PM,50.0,30.0,46,29.79,10.0,SW,24.2,35.7,N/A,,Clear,230,2012-12-05 23:53:00
5:53 PM,48.0,30.9,52,29.81,10.0,SW,17.3,28.8,N/A,,Clear,230,2012-12-06 00:53:00
6:53 PM,46.0,32.0,58,29.83,10.0,SW,20.7,-,N/A,,Partly Cloudy,230,2012-12-06 01:53:00
7:53 PM,42.1,30.9,65,29.87,10.0,SW,15.0,-,N/A,,Clear,230,2012-12-06 02:53:00
8:53 PM,39.9,30.9,70,29.88,10.0,SW,15.0,-,N/A,,Clear,220,2012-12-06 03:53:00
9:53 PM,39.9,30.0,68,29.89,10.0,SW,13.8,-,N/A,,Mostly Cloudy,230,2012-12-06 04:53:00
10:53 PM,39.0,30.0,70,29.89,10.0,WSW,13.8,-,N/A,,Partly Cloudy,240,2012-12-06 05:53:00
11:53 PM,39.0,28.9,67,29.89,10.0,West,8.1,-,N/A,,Mostly Cloudy,270,2012-12-06 06:53:00